sensor_id;sensor_type;location;lat;lon;timestamp;pressure;altitude;pressure_sealevel;temperature;humidity
37068;BME280;22982;42.848;25.468;2023-11-19T00:02:38;95917.72;;;1.03;100.00
37068;BME280;22982;42.848;25.468;2023-11-19T00:07:41;95935.66;;;1.09;100.00
37068;BME280;22982;42.848;25.468;2023-11-19T00:12:46;95936.53;;;1.08;100.00
37068;BME280;22982;42.848;25.468;2023-11-19T00:17:50;95915.03;;;1.07;100.00
37068;BME280;22982;42.848;25.468;2023-11-19T00:22:56;95926.84;;;1.16;100.00
37068;BME280;22982;42.848;25.468;2023-11-19T00:27:58;95934.88;;;1.35;100.00
37068;BME280;22982;42.848;25.468;2023-11-19T00:33:02;95937.50;;;1.33;100.00
37068;BME280;22982;42.848;25.468;2023-11-19T00:38:04;95915.09;;;1.36;100.00
37068;BME280;22982;42.848;25.468;2023-11-19T00:43:07;95930.19;;;1.48;100.00
37068;BME280;22982;42.848;25.468;2023-11-19T00:48:11;95926.53;;;1.55;100.00
37068;BME280;22982;42.848;25.468;2023-11-19T00:53:14;95917.09;;;1.54;100.00
37068;BME280;22982;42.848;25.468;2023-11-19T00:58:16;95923.66;;;1.64;100.00
37068;BME280;22982;42.848;25.468;2023-11-19T01:03:20;95928.91;;;1.63;100.00
37068;BME280;22982;42.848;25.468;2023-11-19T01:08:23;95909.44;;;1.51;100.00
37068;BME280;22982;42.848;25.468;2023-11-19T01:13:26;95902.75;;;1.44;100.00
37068;BME280;22982;42.848;25.468;2023-11-19T01:18:29;95912.38;;;1.68;100.00
37068;BME280;22982;42.848;25.468;2023-11-19T01:23:32;95896.19;;;1.62;100.00
37068;BME280;22982;42.848;25.468;2023-11-19T01:28:36;95921.50;;;1.79;100.00
37068;BME280;22982;42.848;25.468;2023-11-19T01:33:53;95933.25;;;1.89;100.00
37068;BME280;22982;42.848;25.468;2023-11-19T01:38:56;95920.41;;;1.86;100.00
37068;BME280;22982;42.848;25.468;2023-11-19T01:43:59;95931.66;;;1.85;100.00
37068;BME280;22982;42.848;25.468;2023-11-19T01:49:02;95936.63;;;1.91;100.00
37068;BME280;22982;42.848;25.468;2023-11-19T01:54:07;95894.56;;;1.86;100.00
37068;BME280;22982;42.848;25.468;2023-11-19T01:59:11;95917.91;;;1.84;100.00
37068;BME280;22982;42.848;25.468;2023-11-19T02:04:16;95904.91;;;1.86;100.00
37068;BME280;22982;42.848;25.468;2023-11-19T02:09:19;95901.13;;;1.69;100.00
37068;BME280;22982;42.848;25.468;2023-11-19T02:14:25;95914.06;;;1.96;100.00
37068;BME280;22982;42.848;25.468;2023-11-19T02:19:28;95925.28;;;1.95;100.00
37068;BME280;22982;42.848;25.468;2023-11-19T02:24:32;95916.00;;;1.89;100.00
37068;BME280;22982;42.848;25.468;2023-11-19T02:29:36;95913.31;;;1.92;100.00
37068;BME280;22982;42.848;25.468;2023-11-19T02:34:40;95932.88;;;2.01;100.00
37068;BME280;22982;42.848;25.468;2023-11-19T02:39:42;95926.78;;;2.02;100.00
37068;BME280;22982;42.848;25.468;2023-11-19T02:44:46;95920.88;;;1.99;100.00
37068;BME280;22982;42.848;25.468;2023-11-19T02:49:48;95920.03;;;1.98;100.00
37068;BME280;22982;42.848;25.468;2023-11-19T02:54:50;95933.75;;;2.00;100.00
37068;BME280;22982;42.848;25.468;2023-11-19T02:59:54;95943.13;;;2.04;100.00
37068;BME280;22982;42.848;25.468;2023-11-19T03:04:58;95938.97;;;1.99;100.00
37068;BME280;22982;42.848;25.468;2023-11-19T03:10:03;95926.16;;;1.96;100.00
37068;BME280;22982;42.848;25.468;2023-11-19T03:15:08;95956.69;;;2.11;100.00
37068;BME280;22982;42.848;25.468;2023-11-19T03:20:14;95944.78;;;2.05;100.00
37068;BME280;22982;42.848;25.468;2023-11-19T03:25:19;95933.53;;;2.08;100.00
37068;BME280;22982;42.848;25.468;2023-11-19T03:30:22;95942.50;;;1.96;100.00
37068;BME280;22982;42.848;25.468;2023-11-19T03:35:36;95963.66;;;2.09;100.00
37068;BME280;22982;42.848;25.468;2023-11-19T03:40:38;95982.75;;;2.05;100.00
37068;BME280;22982;42.848;25.468;2023-11-19T03:45:41;95960.28;;;2.07;100.00
37068;BME280;22982;42.848;25.468;2023-11-19T03:50:43;95971.44;;;2.07;100.00
37068;BME280;22982;42.848;25.468;2023-11-19T03:55:46;95977.28;;;2.14;100.00
37068;BME280;22982;42.848;25.468;2023-11-19T04:00:49;96000.13;;;2.28;100.00
37068;BME280;22982;42.848;25.468;2023-11-19T04:05:52;95990.56;;;2.03;100.00
37068;BME280;22982;42.848;25.468;2023-11-19T04:10:54;96014.03;;;2.24;100.00
37068;BME280;22982;42.848;25.468;2023-11-19T04:15:57;96013.03;;;2.29;100.00
37068;BME280;22982;42.848;25.468;2023-11-19T04:21:00;96005.69;;;2.16;100.00
37068;BME280;22982;42.848;25.468;2023-11-19T04:26:03;96039.66;;;2.33;100.00
37068;BME280;22982;42.848;25.468;2023-11-19T04:31:09;96024.31;;;2.27;100.00
37068;BME280;22982;42.848;25.468;2023-11-19T04:36:11;96031.97;;;2.30;100.00
37068;BME280;22982;42.848;25.468;2023-11-19T04:41:21;96041.91;;;2.16;100.00
37068;BME280;22982;42.848;25.468;2023-11-19T04:46:23;96033.22;;;2.17;100.00
37068;BME280;22982;42.848;25.468;2023-11-19T04:51:26;96064.19;;;2.20;100.00
37068;BME280;22982;42.848;25.468;2023-11-19T04:56:29;96053.13;;;2.15;100.00
37068;BME280;22982;42.848;25.468;2023-11-19T05:01:33;96063.53;;;2.13;100.00
37068;BME280;22982;42.848;25.468;2023-11-19T05:06:35;96062.69;;;2.13;100.00
37068;BME280;22982;42.848;25.468;2023-11-19T05:11:40;96079.53;;;2.26;100.00
37068;BME280;22982;42.848;25.468;2023-11-19T05:16:45;96071.88;;;2.23;100.00
37068;BME280;22982;42.848;25.468;2023-11-19T05:21:48;96091.56;;;2.27;100.00
37068;BME280;22982;42.848;25.468;2023-11-19T05:26:54;96089.97;;;2.23;100.00
37068;BME280;22982;42.848;25.468;2023-11-19T05:31:56;96097.91;;;2.17;100.00
37068;BME280;22982;42.848;25.468;2023-11-19T05:37:00;96116.75;;;2.20;100.00
37068;BME280;22982;42.848;25.468;2023-11-19T05:42:02;96122.06;;;2.17;100.00
37068;BME280;22982;42.848;25.468;2023-11-19T05:47:05;96104.25;;;2.06;100.00
37068;BME280;22982;42.848;25.468;2023-11-19T05:52:07;96120.75;;;2.32;100.00
37068;BME280;22982;42.848;25.468;2023-11-19T05:57:11;96099.81;;;2.12;100.00
37068;BME280;22982;42.848;25.468;2023-11-19T06:02:15;96118.16;;;2.32;100.00
37068;BME280;22982;42.848;25.468;2023-11-19T06:07:19;96117.16;;;2.36;100.00
37068;BME280;22982;42.848;25.468;2023-11-19T06:12:22;96132.97;;;2.27;100.00
37068;BME280;22982;42.848;25.468;2023-11-19T06:17:25;96117.81;;;2.43;100.00
37068;BME280;22982;42.848;25.468;2023-11-19T06:22:28;96130.59;;;2.47;100.00
37068;BME280;22982;42.848;25.468;2023-11-19T06:27:31;96120.25;;;2.47;100.00
37068;BME280;22982;42.848;25.468;2023-11-19T06:32:33;96137.50;;;2.48;100.00
37068;BME280;22982;42.848;25.468;2023-11-19T06:37:38;96122.88;;;2.74;100.00
37068;BME280;22982;42.848;25.468;2023-11-19T06:42:42;96115.66;;;2.57;100.00
37068;BME280;22982;42.848;25.468;2023-11-19T06:47:44;96151.97;;;2.54;100.00
37068;BME280;22982;42.848;25.468;2023-11-19T06:52:47;96149.63;;;2.46;100.00
37068;BME280;22982;42.848;25.468;2023-11-19T06:57:49;96167.47;;;2.56;100.00
37068;BME280;22982;42.848;25.468;2023-11-19T07:02:53;96142.00;;;2.70;100.00
37068;BME280;22982;42.848;25.468;2023-11-19T07:07:55;96166.41;;;2.63;100.00
37068;BME280;22982;42.848;25.468;2023-11-19T07:12:59;96161.13;;;2.66;100.00
37068;BME280;22982;42.848;25.468;2023-11-19T07:18:02;96169.31;;;2.52;100.00
37068;BME280;22982;42.848;25.468;2023-11-19T07:23:06;96182.13;;;2.57;100.00
37068;BME280;22982;42.848;25.468;2023-11-19T07:28:09;96182.56;;;2.71;100.00
37068;BME280;22982;42.848;25.468;2023-11-19T07:33:11;96182.22;;;2.54;100.00
37068;BME280;22982;42.848;25.468;2023-11-19T07:38:16;96193.75;;;2.72;100.00
37068;BME280;22982;42.848;25.468;2023-11-19T07:43:18;96202.06;;;2.81;100.00
37068;BME280;22982;42.848;25.468;2023-11-19T07:48:21;96219.75;;;2.97;100.00
37068;BME280;22982;42.848;25.468;2023-11-19T07:53:25;96231.06;;;2.93;100.00
37068;BME280;22982;42.848;25.468;2023-11-19T07:58:28;96234.47;;;2.95;100.00
37068;BME280;22982;42.848;25.468;2023-11-19T08:03:31;96213.75;;;2.95;100.00
37068;BME280;22982;42.848;25.468;2023-11-19T08:08:34;96226.25;;;3.09;100.00
37068;BME280;22982;42.848;25.468;2023-11-19T08:13:37;96241.06;;;3.05;100.00
37068;BME280;22982;42.848;25.468;2023-11-19T08:18:43;96245.31;;;3.08;100.00
37068;BME280;22982;42.848;25.468;2023-11-19T08:23:45;96226.78;;;3.20;100.00
37068;BME280;22982;42.848;25.468;2023-11-19T08:28:48;96236.00;;;3.55;100.00
37068;BME280;22982;42.848;25.468;2023-11-19T08:33:51;96216.00;;;3.84;100.00
37068;BME280;22982;42.848;25.468;2023-11-19T08:38:54;96221.88;;;4.62;100.00
37068;BME280;22982;42.848;25.468;2023-11-19T08:43:57;96197.94;;;4.77;100.00
37068;BME280;22982;42.848;25.468;2023-11-19T08:48:59;96195.41;;;5.40;100.00
37068;BME280;22982;42.848;25.468;2023-11-19T08:54:03;96184.75;;;6.09;100.00
37068;BME280;22982;42.848;25.468;2023-11-19T08:59:05;96160.72;;;7.69;100.00
37068;BME280;22982;42.848;25.468;2023-11-19T09:04:09;96179.22;;;8.82;91.78
37068;BME280;22982;42.848;25.468;2023-11-19T09:09:11;96157.16;;;9.48;79.31
37068;BME280;22982;42.848;25.468;2023-11-19T09:14:14;96161.16;;;10.72;62.17
37068;BME280;22982;42.848;25.468;2023-11-19T09:19:17;96156.75;;;11.14;59.74
37068;BME280;22982;42.848;25.468;2023-11-19T09:24:20;96144.91;;;9.79;67.21
37068;BME280;22982;42.848;25.468;2023-11-19T09:29:23;96125.56;;;11.09;58.41
37068;BME280;22982;42.848;25.468;2023-11-19T09:34:26;96136.41;;;9.90;63.94
37068;BME280;22982;42.848;25.468;2023-11-19T09:39:28;96134.31;;;10.54;62.87
37068;BME280;22982;42.848;25.468;2023-11-19T09:44:32;96143.28;;;9.32;68.52
37068;BME280;22982;42.848;25.468;2023-11-19T09:49:35;96122.97;;;10.10;61.77
37068;BME280;22982;42.848;25.468;2023-11-19T09:54:38;96140.75;;;11.32;58.59
37068;BME280;22982;42.848;25.468;2023-11-19T09:59:42;96139.47;;;11.24;56.67
37068;BME280;22982;42.848;25.468;2023-11-19T10:04:46;96152.84;;;11.87;54.72
37068;BME280;22982;42.848;25.468;2023-11-19T10:09:51;96141.03;;;11.94;53.40
37068;BME280;22982;42.848;25.468;2023-11-19T10:14:56;96149.75;;;12.07;53.10
37068;BME280;22982;42.848;25.468;2023-11-19T10:20:03;96136.13;;;12.65;52.28
37068;BME280;22982;42.848;25.468;2023-11-19T10:25:33;96149.78;;;11.27;53.54
37068;BME280;22982;42.848;25.468;2023-11-19T10:30:36;96142.97;;;11.38;53.14
37068;BME280;22982;42.848;25.468;2023-11-19T10:35:57;96142.66;;;10.32;55.03
37068;BME280;22982;42.848;25.468;2023-11-19T10:41:04;96127.13;;;9.70;59.54
37068;BME280;22982;42.848;25.468;2023-11-19T10:46:12;96147.09;;;8.80;64.56
37068;BME280;22982;42.848;25.468;2023-11-19T10:51:19;96148.06;;;8.61;67.50
37068;BME280;22982;42.848;25.468;2023-11-19T10:56:30;96155.22;;;8.09;69.10
37068;BME280;22982;42.848;25.468;2023-11-19T11:01:44;96156.91;;;8.25;76.03
37068;BME280;22982;42.848;25.468;2023-11-19T11:06:48;96164.69;;;8.27;74.85
37068;BME280;22982;42.848;25.468;2023-11-19T11:11:53;96163.88;;;8.09;77.03
37068;BME280;22982;42.848;25.468;2023-11-19T11:16:57;96179.06;;;7.67;76.95
37068;BME280;22982;42.848;25.468;2023-11-19T11:22:02;96163.25;;;7.53;76.64
37068;BME280;22982;42.848;25.468;2023-11-19T11:27:21;96172.09;;;7.68;77.55
37068;BME280;22982;42.848;25.468;2023-11-19T11:32:50;96163.78;;;7.42;74.92
37068;BME280;22982;42.848;25.468;2023-11-19T11:38:02;96179.00;;;7.52;77.07
37068;BME280;22982;42.848;25.468;2023-11-19T11:48:48;96167.88;;;7.12;78.91
37068;BME280;22982;42.848;25.468;2023-11-19T11:53:53;96153.56;;;6.84;80.54
37068;BME280;22982;42.848;25.468;2023-11-19T11:58:56;96155.53;;;6.79;80.48
37068;BME280;22982;42.848;25.468;2023-11-19T12:04:04;96129.16;;;7.04;80.41
37068;BME280;22982;42.848;25.468;2023-11-19T12:09:07;96147.97;;;7.28;77.97
37068;BME280;22982;42.848;25.468;2023-11-19T12:14:10;96118.16;;;6.97;77.94
37068;BME280;22982;42.848;25.468;2023-11-19T12:19:13;96125.78;;;7.02;78.15
37068;BME280;22982;42.848;25.468;2023-11-19T12:24:16;96136.59;;;6.94;79.69
37068;BME280;22982;42.848;25.468;2023-11-19T12:29:19;96124.00;;;6.85;79.26
37068;BME280;22982;42.848;25.468;2023-11-19T12:34:23;96096.53;;;6.78;75.79
37068;BME280;22982;42.848;25.468;2023-11-19T12:39:32;96120.25;;;7.08;75.76
37068;BME280;22982;42.848;25.468;2023-11-19T12:44:35;96102.47;;;6.99;76.13
37068;BME280;22982;42.848;25.468;2023-11-19T12:49:37;96096.19;;;7.03;75.55
37068;BME280;22982;42.848;25.468;2023-11-19T12:54:40;96088.59;;;6.98;75.34
37068;BME280;22982;42.848;25.468;2023-11-19T12:59:42;96090.44;;;6.96;76.83
37068;BME280;22982;42.848;25.468;2023-11-19T13:04:45;96076.91;;;6.70;76.71
37068;BME280;22982;42.848;25.468;2023-11-19T13:09:48;96061.97;;;6.92;75.78
37068;BME280;22982;42.848;25.468;2023-11-19T13:14:51;96011.75;;;6.70;76.76
37068;BME280;22982;42.848;25.468;2023-11-19T13:19:55;96032.16;;;6.80;75.70
37068;BME280;22982;42.848;25.468;2023-11-19T13:24:59;96049.78;;;7.09;77.73
37068;BME280;22982;42.848;25.468;2023-11-19T13:30:05;96049.47;;;7.33;100.00
37068;BME280;22982;42.848;25.468;2023-11-19T13:35:09;96035.81;;;7.45;100.00
37068;BME280;22982;42.848;25.468;2023-11-19T13:40:12;96032.50;;;6.72;78.88
37068;BME280;22982;42.848;25.468;2023-11-19T13:45:17;96038.28;;;6.96;100.00
37068;BME280;22982;42.848;25.468;2023-11-19T13:50:22;96039.69;;;6.30;100.00
37068;BME280;22982;42.848;25.468;2023-11-19T13:55:26;96029.47;;;6.27;92.84
37068;BME280;22982;42.848;25.468;2023-11-19T14:00:30;96036.50;;;6.06;100.00
37068;BME280;22982;42.848;25.468;2023-11-19T14:05:32;96025.91;;;5.90;100.00
37068;BME280;22982;42.848;25.468;2023-11-19T14:10:39;96027.34;;;5.98;100.00
37068;BME280;22982;42.848;25.468;2023-11-19T14:15:42;96035.63;;;5.68;100.00
37068;BME280;22982;42.848;25.468;2023-11-19T14:20:46;96059.84;;;6.08;100.00
37068;BME280;22982;42.848;25.468;2023-11-19T14:25:50;96041.38;;;5.93;100.00
37068;BME280;22982;42.848;25.468;2023-11-19T14:30:52;96083.84;;;5.96;100.00
37068;BME280;22982;42.848;25.468;2023-11-19T14:35:59;96069.03;;;4.95;100.00
37068;BME280;22982;42.848;25.468;2023-11-19T14:41:02;96087.97;;;4.76;100.00
37068;BME280;22982;42.848;25.468;2023-11-19T14:46:04;96120.91;;;4.76;100.00
37068;BME280;22982;42.848;25.468;2023-11-19T14:51:09;96114.31;;;4.23;100.00
37068;BME280;22982;42.848;25.468;2023-11-19T14:56:11;96076.00;;;3.82;100.00
37068;BME280;22982;42.848;25.468;2023-11-19T15:01:18;96109.19;;;3.98;100.00
37068;BME280;22982;42.848;25.468;2023-11-19T15:06:24;96102.94;;;3.55;100.00
37068;BME280;22982;42.848;25.468;2023-11-19T15:11:29;96106.53;;;3.51;100.00
37068;BME280;22982;42.848;25.468;2023-11-19T15:16:32;96095.41;;;3.23;100.00
37068;BME280;22982;42.848;25.468;2023-11-19T15:21:36;96099.19;;;3.13;100.00
37068;BME280;22982;42.848;25.468;2023-11-19T15:26:39;96109.22;;;2.69;100.00
37068;BME280;22982;42.848;25.468;2023-11-19T15:31:42;96119.56;;;2.42;100.00
37068;BME280;22982;42.848;25.468;2023-11-19T15:36:45;96136.25;;;2.32;100.00
37068;BME280;22982;42.848;25.468;2023-11-19T15:41:48;96152.34;;;2.14;100.00
37068;BME280;22982;42.848;25.468;2023-11-19T15:46:51;96153.72;;;1.96;100.00
37068;BME280;22982;42.848;25.468;2023-11-19T15:51:55;96160.47;;;2.00;100.00
37068;BME280;22982;42.848;25.468;2023-11-19T15:56:58;96170.72;;;2.04;100.00
37068;BME280;22982;42.848;25.468;2023-11-19T16:02:01;96166.03;;;1.86;100.00
37068;BME280;22982;42.848;25.468;2023-11-19T16:07:04;96160.84;;;1.86;100.00
37068;BME280;22982;42.848;25.468;2023-11-19T16:12:08;96177.63;;;1.71;100.00
37068;BME280;22982;42.848;25.468;2023-11-19T16:17:11;96161.97;;;1.44;100.00
37068;BME280;22982;42.848;25.468;2023-11-19T16:22:14;96126.25;;;1.27;100.00
37068;BME280;22982;42.848;25.468;2023-11-19T16:27:17;96148.91;;;1.50;100.00
37068;BME280;22982;42.848;25.468;2023-11-19T16:32:22;96167.19;;;1.43;100.00
37068;BME280;22982;42.848;25.468;2023-11-19T16:37:25;96147.56;;;1.36;100.00
37068;BME280;22982;42.848;25.468;2023-11-19T16:42:28;96167.75;;;1.54;100.00
37068;BME280;22982;42.848;25.468;2023-11-19T16:47:31;96157.28;;;1.26;100.00
37068;BME280;22982;42.848;25.468;2023-11-19T16:52:35;96159.38;;;1.11;100.00
37068;BME280;22982;42.848;25.468;2023-11-19T16:57:41;96161.53;;;1.28;100.00
37068;BME280;22982;42.848;25.468;2023-11-19T17:02:46;96101.84;;;1.05;100.00
37068;BME280;22982;42.848;25.468;2023-11-19T17:07:52;96153.78;;;1.28;100.00
37068;BME280;22982;42.848;25.468;2023-11-19T17:12:54;96155.97;;;1.44;100.00
37068;BME280;22982;42.848;25.468;2023-11-19T17:17:57;96149.88;;;1.12;100.00
37068;BME280;22982;42.848;25.468;2023-11-19T17:23:02;96150.34;;;1.28;100.00
37068;BME280;22982;42.848;25.468;2023-11-19T17:28:08;96172.19;;;1.16;100.00
37068;BME280;22982;42.848;25.468;2023-11-19T17:33:11;96168.38;;;0.95;100.00
37068;BME280;22982;42.848;25.468;2023-11-19T17:38:13;96136.22;;;0.72;100.00
37068;BME280;22982;42.848;25.468;2023-11-19T17:43:19;96162.16;;;0.66;100.00
37068;BME280;22982;42.848;25.468;2023-11-19T17:48:22;96169.19;;;0.60;100.00
37068;BME280;22982;42.848;25.468;2023-11-19T17:53:24;96155.34;;;0.64;100.00
37068;BME280;22982;42.848;25.468;2023-11-19T17:58:28;96148.38;;;0.67;100.00
37068;BME280;22982;42.848;25.468;2023-11-19T18:03:30;96137.63;;;0.48;100.00
37068;BME280;22982;42.848;25.468;2023-11-19T18:08:36;96138.75;;;0.38;100.00
37068;BME280;22982;42.848;25.468;2023-11-19T18:13:38;96133.28;;;0.11;100.00
37068;BME280;22982;42.848;25.468;2023-11-19T18:18:40;96155.75;;;0.06;100.00
37068;BME280;22982;42.848;25.468;2023-11-19T18:23:44;96131.13;;;-0.09;100.00
37068;BME280;22982;42.848;25.468;2023-11-19T18:28:47;96143.88;;;-0.03;100.00
37068;BME280;22982;42.848;25.468;2023-11-19T18:33:51;96158.47;;;-0.02;100.00
37068;BME280;22982;42.848;25.468;2023-11-19T18:38:53;96148.09;;;0.02;100.00
37068;BME280;22982;42.848;25.468;2023-11-19T18:43:55;96162.91;;;-0.08;100.00
37068;BME280;22982;42.848;25.468;2023-11-19T18:48:59;96165.50;;;-0.10;100.00
37068;BME280;22982;42.848;25.468;2023-11-19T18:54:02;96138.59;;;-0.39;100.00
37068;BME280;22982;42.848;25.468;2023-11-19T18:59:05;96151.03;;;-0.15;100.00
37068;BME280;22982;42.848;25.468;2023-11-19T19:04:14;96172.28;;;-0.06;100.00
37068;BME280;22982;42.848;25.468;2023-11-19T19:09:16;96150.44;;;-0.30;100.00
37068;BME280;22982;42.848;25.468;2023-11-19T19:14:24;96166.75;;;-0.31;100.00
37068;BME280;22982;42.848;25.468;2023-11-19T19:19:26;96152.31;;;-0.38;100.00
37068;BME280;22982;42.848;25.468;2023-11-19T19:24:30;96160.50;;;-0.63;100.00
37068;BME280;22982;42.848;25.468;2023-11-19T19:29:32;96152.34;;;-0.40;100.00
37068;BME280;22982;42.848;25.468;2023-11-19T19:34:36;96127.66;;;-0.50;100.00
37068;BME280;22982;42.848;25.468;2023-11-19T19:39:39;96128.91;;;-0.72;100.00
37068;BME280;22982;42.848;25.468;2023-11-19T19:44:42;96131.28;;;-0.62;100.00
37068;BME280;22982;42.848;25.468;2023-11-19T19:49:44;96138.16;;;-0.61;100.00
37068;BME280;22982;42.848;25.468;2023-11-19T19:54:47;96134.81;;;-0.67;100.00
37068;BME280;22982;42.848;25.468;2023-11-19T19:59:50;96128.19;;;-0.79;100.00
37068;BME280;22982;42.848;25.468;2023-11-19T20:04:52;96124.66;;;-0.73;100.00
37068;BME280;22982;42.848;25.468;2023-11-19T20:09:58;96089.75;;;-0.88;100.00
37068;BME280;22982;42.848;25.468;2023-11-19T20:15:00;96113.59;;;-0.79;100.00
37068;BME280;22982;42.848;25.468;2023-11-19T20:20:04;96112.19;;;-0.97;100.00
37068;BME280;22982;42.848;25.468;2023-11-19T20:25:08;96123.69;;;-0.68;100.00
37068;BME280;22982;42.848;25.468;2023-11-19T20:30:12;96134.94;;;-0.72;100.00
37068;BME280;22982;42.848;25.468;2023-11-19T20:35:15;96088.44;;;-1.12;100.00
37068;BME280;22982;42.848;25.468;2023-11-19T20:40:18;96115.53;;;-0.91;100.00
37068;BME280;22982;42.848;25.468;2023-11-19T20:45:21;96106.34;;;-1.05;100.00
37068;BME280;22982;42.848;25.468;2023-11-19T20:50:24;96121.09;;;-1.18;100.00
37068;BME280;22982;42.848;25.468;2023-11-19T20:55:28;96124.41;;;-1.08;100.00
37068;BME280;22982;42.848;25.468;2023-11-19T21:00:34;96117.19;;;-1.39;100.00
37068;BME280;22982;42.848;25.468;2023-11-19T21:05:39;96094.41;;;-1.62;100.00
37068;BME280;22982;42.848;25.468;2023-11-19T21:10:42;96085.84;;;-1.62;100.00
37068;BME280;22982;42.848;25.468;2023-11-19T21:15:44;96082.34;;;-1.60;100.00
37068;BME280;22982;42.848;25.468;2023-11-19T21:20:59;96079.56;;;-1.44;100.00
37068;BME280;22982;42.848;25.468;2023-11-19T21:26:02;96086.50;;;-1.51;100.00
37068;BME280;22982;42.848;25.468;2023-11-19T21:31:05;96093.91;;;-1.31;100.00
37068;BME280;22982;42.848;25.468;2023-11-19T21:36:08;96062.06;;;-1.24;100.00
37068;BME280;22982;42.848;25.468;2023-11-19T21:41:13;96091.28;;;-1.26;100.00
37068;BME280;22982;42.848;25.468;2023-11-19T21:46:16;96071.66;;;-1.33;100.00
37068;BME280;22982;42.848;25.468;2023-11-19T21:51:19;96064.50;;;-1.67;100.00
37068;BME280;22982;42.848;25.468;2023-11-19T21:56:21;96065.28;;;-1.62;100.00
37068;BME280;22982;42.848;25.468;2023-11-19T22:01:24;96063.53;;;-1.60;100.00
37068;BME280;22982;42.848;25.468;2023-11-19T22:06:27;96069.34;;;-1.49;100.00
37068;BME280;22982;42.848;25.468;2023-11-19T22:11:30;96058.72;;;-1.30;100.00
37068;BME280;22982;42.848;25.468;2023-11-19T22:16:34;96070.16;;;-1.48;100.00
37068;BME280;22982;42.848;25.468;2023-11-19T22:21:37;96087.34;;;-1.50;100.00
37068;BME280;22982;42.848;25.468;2023-11-19T22:26:40;96064.34;;;-1.58;100.00
37068;BME280;22982;42.848;25.468;2023-11-19T22:31:43;96078.06;;;-1.59;100.00
37068;BME280;22982;42.848;25.468;2023-11-19T22:36:46;96035.63;;;-1.85;100.00
37068;BME280;22982;42.848;25.468;2023-11-19T22:41:48;96083.19;;;-1.58;100.00
37068;BME280;22982;42.848;25.468;2023-11-19T22:46:51;96069.44;;;-1.53;100.00
37068;BME280;22982;42.848;25.468;2023-11-19T22:51:54;96067.75;;;-1.58;100.00
37068;BME280;22982;42.848;25.468;2023-11-19T22:56:57;96064.22;;;-1.52;100.00
37068;BME280;22982;42.848;25.468;2023-11-19T23:02:00;96002.22;;;-1.85;100.00
37068;BME280;22982;42.848;25.468;2023-11-19T23:07:03;96068.56;;;-1.54;100.00
37068;BME280;22982;42.848;25.468;2023-11-19T23:12:07;96050.47;;;-1.48;100.00
37068;BME280;22982;42.848;25.468;2023-11-19T23:17:09;96065.47;;;-1.23;100.00
37068;BME280;22982;42.848;25.468;2023-11-19T23:22:19;96044.84;;;-1.20;100.00
37068;BME280;22982;42.848;25.468;2023-11-19T23:27:24;96018.38;;;-1.27;100.00
37068;BME280;22982;42.848;25.468;2023-11-19T23:32:28;96032.63;;;-1.09;100.00
37068;BME280;22982;42.848;25.468;2023-11-19T23:37:31;96065.25;;;-1.11;100.00
37068;BME280;22982;42.848;25.468;2023-11-19T23:42:34;96055.88;;;-1.12;100.00
37068;BME280;22982;42.848;25.468;2023-11-19T23:47:37;96036.75;;;-0.99;100.00
37068;BME280;22982;42.848;25.468;2023-11-19T23:52:40;96049.16;;;-0.74;100.00
37068;BME280;22982;42.848;25.468;2023-11-19T23:57:43;96023.53;;;-0.82;100.00
